createdAt,value
2017-11-09T00:02:58.520Z,23.00
2017-11-09T00:08:27.438Z,21.33
2017-11-09T00:13:55.585Z,22.13
2017-11-09T00:19:40.941Z,21.53
2017-11-09T00:25:09.097Z,21.60
2017-11-09T00:30:37.242Z,23.97
2017-11-09T00:36:10.374Z,21.87
2017-11-09T00:41:39.300Z,21.97
2017-11-09T00:47:07.461Z,21.33
2017-11-09T00:52:36.665Z,23.90
2017-11-09T00:58:05.576Z,22.70
2017-11-09T01:03:33.745Z,20.73
2017-11-09T01:09:02.652Z,23.07
2017-11-09T01:14:30.802Z,23.50
2017-11-09T01:19:58.934Z,24.27
2017-11-09T01:25:27.105Z,20.03
2017-11-09T01:30:55.265Z,22.43
2017-11-09T01:36:24.209Z,22.30
2017-11-09T01:41:52.601Z,24.90
2017-11-09T01:47:20.753Z,22.40
2017-11-09T01:53:06.901Z,28.27
2017-11-09T01:58:35.032Z,24.20
2017-11-09T02:04:03.172Z,22.27
2017-11-09T02:09:32.151Z,26.27
2017-11-09T02:15:00.293Z,22.27
2017-11-09T02:20:28.708Z,22.70
2017-11-09T02:25:56.847Z,20.93
2017-11-09T02:31:24.990Z,24.40
2017-11-09T02:36:53.137Z,22.90
2017-11-09T02:42:21.275Z,21.40
2017-11-09T02:47:59.938Z,21.03
2017-11-09T02:53:28.876Z,22.40
2017-11-09T02:58:57.800Z,25.87
2017-11-09T03:04:27.905Z,20.70
2017-11-09T03:09:56.047Z,20.47
2017-11-09T03:15:24.188Z,23.20
2017-11-09T03:20:58.358Z,23.80
2017-11-09T03:26:26.511Z,23.97
2017-11-09T03:31:54.690Z,20.00
2017-11-09T03:37:24.802Z,19.50
2017-11-09T03:42:52.944Z,23.67
2017-11-09T03:48:21.419Z,18.43
2017-11-09T03:53:49.560Z,19.80
2017-11-09T03:59:19.595Z,18.93
2017-11-09T04:04:47.987Z,21.57
2017-11-09T04:10:28.825Z,18.50
2017-11-09T04:15:57.000Z,22.10
2017-11-09T04:21:25.170Z,20.43
2017-11-09T04:26:53.305Z,19.50
2017-11-09T04:32:31.436Z,20.77
2017-11-09T04:37:59.583Z,19.20
2017-11-09T04:43:27.750Z,20.07
2017-11-09T04:48:56.847Z,21.20
2017-11-09T04:54:25.776Z,20.90
2017-11-09T04:59:54.697Z,20.87
2017-11-09T05:05:32.656Z,20.40
2017-11-09T05:11:00.826Z,21.13
2017-11-09T05:16:47.293Z,22.10
2017-11-09T05:22:15.444Z,23.07
2017-11-09T05:27:57.922Z,24.40
2017-11-09T05:33:26.075Z,21.37
2017-11-09T05:38:54.257Z,21.53
2017-11-09T05:44:22.405Z,25.73
2017-11-09T05:49:50.550Z,22.03
2017-11-09T05:55:18.688Z,22.70
2017-11-09T06:00:46.843Z,21.40
2017-11-09T06:06:14.990Z,22.03
2017-11-09T06:11:43.142Z,24.70
2017-11-09T06:17:11.288Z,21.40
2017-11-09T06:22:43.819Z,22.60
2017-11-09T06:28:11.956Z,23.63
2017-11-09T06:33:40.112Z,26.07
2017-11-09T06:39:08.240Z,23.97
2017-11-09T06:44:36.394Z,21.17
2017-11-09T06:50:05.299Z,23.10
2017-11-09T06:55:33.443Z,23.07
2017-11-09T07:01:02.367Z,21.57
2017-11-09T07:06:30.513Z,23.07
2017-11-09T07:11:58.671Z,21.63
2017-11-09T07:17:26.824Z,34.30
2017-11-09T07:22:54.969Z,24.60
2017-11-09T07:28:23.134Z,23.23
2017-11-09T07:33:51.272Z,23.23
2017-11-09T07:39:19.432Z,22.07
2017-11-09T07:44:47.581Z,21.73
2017-11-09T07:50:15.716Z,20.40
2017-11-09T07:55:43.861Z,21.87
2017-11-09T08:01:12.006Z,22.90
2017-11-09T08:06:40.169Z,21.33
2017-11-09T08:12:08.319Z,19.83
2017-11-09T08:17:36.469Z,26.13
2017-11-09T08:23:04.604Z,18.50
2017-11-09T08:28:34.185Z,18.87
2017-11-09T08:34:02.346Z,20.43
2017-11-09T08:39:31.249Z,22.70
2017-11-09T08:44:59.400Z,22.20
2017-11-09T08:50:28.341Z,18.70
2017-11-09T08:55:57.254Z,21.20
2017-11-09T09:01:25.403Z,19.80
2017-11-09T09:06:53.558Z,19.93
2017-11-09T09:12:21.709Z,23.67
2017-11-09T09:17:49.845Z,21.67
2017-11-09T09:23:18.762Z,18.30
2017-11-09T09:28:46.902Z,16.40
2017-11-09T09:34:23.132Z,15.80
2017-11-09T09:39:53.195Z,17.23
2017-11-09T09:45:21.340Z,18.60
2017-11-09T09:50:49.497Z,14.73
2017-11-09T09:56:17.634Z,17.80
2017-11-09T10:01:45.822Z,14.90
2017-11-09T10:07:13.969Z,11.83
2017-11-09T10:12:42.889Z,15.30
2017-11-09T10:18:11.031Z,15.10
2017-11-09T10:23:39.192Z,13.77
2017-11-09T10:29:08.101Z,13.90
2017-11-09T10:34:36.247Z,18.10
2017-11-09T10:40:04.381Z,15.50
2017-11-09T10:45:32.547Z,18.00
2017-11-09T10:51:01.443Z,11.37
2017-11-09T10:56:29.584Z,13.43
2017-11-09T11:01:57.740Z,12.87
2017-11-09T11:07:25.926Z,12.50
2017-11-09T11:12:54.079Z,12.67
2017-11-09T11:18:22.219Z,20.53
2017-11-09T11:23:50.375Z,12.77
2017-11-09T11:29:18.518Z,11.07
2017-11-09T11:34:47.416Z,9.20
2017-11-09T11:40:15.562Z,9.10
2017-11-09T11:45:43.748Z,8.50
2017-11-09T11:51:12.652Z,11.77
2017-11-09T11:56:40.799Z,11.50
2017-11-09T12:02:08.934Z,8.27
2017-11-09T12:07:37.060Z,9.93
2017-11-09T12:13:05.203Z,16.70
2017-11-09T12:18:33.335Z,20.10
2017-11-09T12:24:02.248Z,20.43
2017-11-09T12:29:30.398Z,18.87
2017-11-09T12:34:59.313Z,25.20
2017-11-09T12:40:27.465Z,24.10
2017-11-09T12:45:55.642Z,22.10
2017-11-09T12:51:23.773Z,19.47
2017-11-09T12:56:51.940Z,24.33
2017-11-09T13:02:20.844Z,20.50
2017-11-09T13:07:49.770Z,20.17
2017-11-09T13:13:17.915Z,20.30
2017-11-09T13:18:46.058Z,20.10
2017-11-09T13:24:14.217Z,17.10
2017-11-09T13:29:42.355Z,18.70
2017-11-09T13:35:11.273Z,19.70
2017-11-09T13:40:39.400Z,20.83
2017-11-09T13:46:07.537Z,21.27
2017-11-09T13:51:36.493Z,18.80
2017-11-09T13:57:04.655Z,21.97
2017-11-09T14:02:32.784Z,21.03
2017-11-09T14:08:00.966Z,20.90
2017-11-09T14:13:29.138Z,23.77
2017-11-09T14:18:57.275Z,22.47
2017-11-09T14:24:26.190Z,19.57
2017-11-09T14:29:55.122Z,19.53
2017-11-09T14:35:23.282Z,31.60
2017-11-09T14:40:51.448Z,22.33
2017-11-09T14:46:19.584Z,19.70
2017-11-09T14:51:47.724Z,20.30
2017-11-09T14:57:17.037Z,16.67
2017-11-09T15:02:45.186Z,20.97
2017-11-09T15:08:14.092Z,17.33
2017-11-09T15:13:42.288Z,11.20
2017-11-09T15:19:16.969Z,17.43
2017-11-09T15:24:48.924Z,14.30
2017-11-09T15:30:17.084Z,12.60
2017-11-09T15:35:50.867Z,19.13
2017-11-09T15:41:19.013Z,17.20
2017-11-09T15:46:47.148Z,13.03
2017-11-09T15:52:16.061Z,15.73
2017-11-09T15:57:44.197Z,18.87
2017-11-09T16:03:12.355Z,17.90
2017-11-09T16:08:40.490Z,14.23
2017-11-09T16:14:08.639Z,20.70
2017-11-09T16:19:36.777Z,19.30
2017-11-09T16:25:05.704Z,17.13
2017-11-09T16:30:33.879Z,16.40
2017-11-09T16:36:02.020Z,15.60
2017-11-09T16:41:30.188Z,17.37
2017-11-09T16:46:58.335Z,17.60
2017-11-09T16:52:26.476Z,15.57
2017-11-09T16:57:54.628Z,17.30
2017-11-09T17:03:23.542Z,18.40
2017-11-09T17:08:51.689Z,19.30
2017-11-09T17:14:20.602Z,25.87
2017-11-09T17:19:48.739Z,22.03
2017-11-09T17:25:17.646Z,21.07
2017-11-09T17:30:45.791Z,17.73
2017-11-09T17:36:13.935Z,26.60
2017-11-09T17:41:42.071Z,18.30
2017-11-09T17:47:10.204Z,19.90
2017-11-09T17:52:38.357Z,16.77
2017-11-09T17:58:06.511Z,19.97
2017-11-09T18:03:34.653Z,17.93
2017-11-09T18:09:02.818Z,21.20
2017-11-09T18:14:31.360Z,18.60
2017-11-09T18:20:01.048Z,18.87
2017-11-09T18:25:30.212Z,23.03
2017-11-09T18:30:58.381Z,19.40
2017-11-09T18:36:47.221Z,18.67
2017-11-09T18:42:28.284Z,18.03
2017-11-09T18:47:56.456Z,18.40
2017-11-09T18:53:24.595Z,18.73
2017-11-09T18:58:52.762Z,20.67
2017-11-09T19:04:21.710Z,19.27
2017-11-09T19:09:50.675Z,19.73
2017-11-09T19:15:18.808Z,22.10
2017-11-09T19:20:46.941Z,19.13
2017-11-09T19:26:15.090Z,22.80
2017-11-09T19:31:44.234Z,22.67
2017-11-09T19:37:12.385Z,21.13
2017-11-09T19:42:40.524Z,25.10
2017-11-09T19:48:08.655Z,18.77
2017-11-09T19:53:36.833Z,20.40
2017-11-09T19:59:09.459Z,21.47
2017-11-09T20:04:38.394Z,22.00
2017-11-09T20:10:07.317Z,19.63
2017-11-09T20:15:59.692Z,20.80
2017-11-09T20:21:28.233Z,20.67
2017-11-09T20:26:59.593Z,19.17
2017-11-09T20:32:47.021Z,21.13
2017-11-09T20:38:15.173Z,25.70
2017-11-09T20:43:46.350Z,23.27
2017-11-09T20:49:14.502Z,21.00
2017-11-09T20:54:43.459Z,20.50
2017-11-09T21:00:12.613Z,21.87
2017-11-09T21:05:40.784Z,26.60
2017-11-09T21:11:09.001Z,25.53
2017-11-09T21:16:37.156Z,24.27
2017-11-09T21:22:10.078Z,21.00
2017-11-09T21:27:38.300Z,24.20
2017-11-09T21:33:08.639Z,22.73
2017-11-09T21:38:41.137Z,24.50
2017-11-09T21:44:10.074Z,23.80
2017-11-09T21:49:54.341Z,21.90
2017-11-09T21:55:28.917Z,25.70
2017-11-09T22:00:57.101Z,23.20
2017-11-09T22:06:29.828Z,24.10
2017-11-09T22:11:58.998Z,23.40
2017-11-09T22:17:27.160Z,21.47
2017-11-09T22:22:56.130Z,23.63
2017-11-09T22:28:30.897Z,23.07
2017-11-09T22:34:03.046Z,22.80
2017-11-09T22:39:38.247Z,21.27
2017-11-09T22:45:06.384Z,22.93
2017-11-09T22:50:34.536Z,23.20
2017-11-09T22:56:07.741Z,20.90
2017-11-09T23:01:40.213Z,19.20
2017-11-09T23:07:12.038Z,20.33
2017-11-09T23:12:40.189Z,19.40
2017-11-09T23:18:09.101Z,23.73
2017-11-09T23:23:37.284Z,18.50
2017-11-09T23:29:09.239Z,19.63
2017-11-09T23:34:37.398Z,19.00
2017-11-09T23:40:05.565Z,19.40
2017-11-09T23:45:34.661Z,18.97
2017-11-09T23:51:02.808Z,18.90
2017-11-09T23:56:34.547Z,20.77
